sensor_id;sensor_type;location;lat;lon;timestamp;P1;durP1;ratioP1;P2;durP2;ratioP2
75785;SDS011;64402;44.708;37.644;2023-03-01T00:01:26;10.45;;;5.43;;
75785;SDS011;64402;44.708;37.644;2023-03-01T00:03:56;11.02;;;5.28;;
75785;SDS011;64402;44.708;37.644;2023-03-01T00:06:24;11.70;;;6.20;;
75785;SDS011;64402;44.708;37.644;2023-03-01T00:08:51;10.98;;;5.40;;
75785;SDS011;64402;44.708;37.644;2023-03-01T00:13:58;12.23;;;5.85;;
75785;SDS011;64402;44.708;37.644;2023-03-01T00:16:27;11.77;;;6.05;;
75785;SDS011;64402;44.708;37.644;2023-03-01T00:18:56;10.02;;;5.70;;
75785;SDS011;64402;44.708;37.644;2023-03-01T00:21:23;12.82;;;6.60;;
75785;SDS011;64402;44.708;37.644;2023-03-01T00:23:50;12.02;;;6.30;;
75785;SDS011;64402;44.708;37.644;2023-03-01T00:26:17;13.23;;;6.60;;
75785;SDS011;64402;44.708;37.644;2023-03-01T00:28:44;20.50;;;6.45;;
75785;SDS011;64402;44.708;37.644;2023-03-01T00:31:16;14.48;;;7.18;;
75785;SDS011;64402;44.708;37.644;2023-03-01T00:33:44;12.43;;;6.30;;
75785;SDS011;64402;44.708;37.644;2023-03-01T00:36:11;12.68;;;6.30;;
75785;SDS011;64402;44.708;37.644;2023-03-01T00:38:40;10.98;;;6.63;;
75785;SDS011;64402;44.708;37.644;2023-03-01T00:41:09;12.27;;;6.25;;
75785;SDS011;64402;44.708;37.644;2023-03-01T00:43:37;12.50;;;6.72;;
75785;SDS011;64402;44.708;37.644;2023-03-01T00:46:05;12.27;;;6.50;;
75785;SDS011;64402;44.708;37.644;2023-03-01T00:48:33;12.48;;;6.90;;
75785;SDS011;64402;44.708;37.644;2023-03-01T00:51:19;12.43;;;6.28;;
75785;SDS011;64402;44.708;37.644;2023-03-01T00:53:47;11.68;;;6.07;;
75785;SDS011;64402;44.708;37.644;2023-03-01T00:56:16;11.10;;;5.75;;
75785;SDS011;64402;44.708;37.644;2023-03-01T00:58:43;11.75;;;6.10;;
75785;SDS011;64402;44.708;37.644;2023-03-01T01:03:51;11.77;;;6.15;;
75785;SDS011;64402;44.708;37.644;2023-03-01T01:06:23;13.02;;;6.43;;
75785;SDS011;64402;44.708;37.644;2023-03-01T01:08:51;10.90;;;5.82;;
75785;SDS011;64402;44.708;37.644;2023-03-01T01:11:18;11.20;;;5.97;;
75785;SDS011;64402;44.708;37.644;2023-03-01T01:13:45;12.70;;;6.57;;
75785;SDS011;64402;44.708;37.644;2023-03-01T01:16:13;12.77;;;6.72;;
75785;SDS011;64402;44.708;37.644;2023-03-01T01:18:39;12.82;;;6.40;;
75785;SDS011;64402;44.708;37.644;2023-03-01T01:21:06;12.80;;;6.47;;
75785;SDS011;64402;44.708;37.644;2023-03-01T01:23:34;13.65;;;6.03;;
75785;SDS011;64402;44.708;37.644;2023-03-01T01:26:07;12.05;;;6.18;;
75785;SDS011;64402;44.708;37.644;2023-03-01T01:28:38;12.93;;;6.22;;
75785;SDS011;64402;44.708;37.644;2023-03-01T01:31:04;12.93;;;7.15;;
75785;SDS011;64402;44.708;37.644;2023-03-01T01:33:31;12.10;;;5.97;;
75785;SDS011;64402;44.708;37.644;2023-03-01T01:36:01;13.45;;;6.57;;
75785;SDS011;64402;44.708;37.644;2023-03-01T01:38:28;13.95;;;6.45;;
75785;SDS011;64402;44.708;37.644;2023-03-01T01:40:54;12.55;;;6.43;;
75785;SDS011;64402;44.708;37.644;2023-03-01T01:43:28;16.42;;;7.40;;
75785;SDS011;64402;44.708;37.644;2023-03-01T01:45:59;12.90;;;6.25;;
75785;SDS011;64402;44.708;37.644;2023-03-01T01:48:42;12.73;;;6.32;;
75785;SDS011;64402;44.708;37.644;2023-03-01T01:51:17;14.32;;;6.97;;
75785;SDS011;64402;44.708;37.644;2023-03-01T01:53:46;14.50;;;6.85;;
75785;SDS011;64402;44.708;37.644;2023-03-01T01:56:16;13.85;;;6.80;;
75785;SDS011;64402;44.708;37.644;2023-03-01T01:58:44;12.82;;;6.90;;
75785;SDS011;64402;44.708;37.644;2023-03-01T02:01:13;13.20;;;6.82;;
75785;SDS011;64402;44.708;37.644;2023-03-01T02:03:39;12.48;;;7.00;;
75785;SDS011;64402;44.708;37.644;2023-03-01T02:08:37;11.57;;;6.32;;
75785;SDS011;64402;44.708;37.644;2023-03-01T02:11:06;14.13;;;7.10;;
75785;SDS011;64402;44.708;37.644;2023-03-01T02:13:34;15.70;;;7.22;;
75785;SDS011;64402;44.708;37.644;2023-03-01T02:16:05;12.30;;;6.90;;
75785;SDS011;64402;44.708;37.644;2023-03-01T02:18:35;13.85;;;7.10;;
75785;SDS011;64402;44.708;37.644;2023-03-01T02:23:53;16.17;;;7.32;;
75785;SDS011;64402;44.708;37.644;2023-03-01T02:27:03;24.40;;;12.10;;
75785;SDS011;64402;44.708;37.644;2023-03-01T02:29:15;16.33;;;7.90;;
75785;SDS011;64402;44.708;37.644;2023-03-01T02:31:41;17.00;;;7.43;;
75785;SDS011;64402;44.708;37.644;2023-03-01T02:34:12;13.82;;;6.80;;
75785;SDS011;64402;44.708;37.644;2023-03-01T02:36:47;14.63;;;7.60;;
75785;SDS011;64402;44.708;37.644;2023-03-01T02:39:21;15.05;;;7.38;;
75785;SDS011;64402;44.708;37.644;2023-03-01T02:41:51;16.20;;;6.93;;
75785;SDS011;64402;44.708;37.644;2023-03-01T02:44:20;12.93;;;6.90;;
75785;SDS011;64402;44.708;37.644;2023-03-01T02:46:48;13.85;;;7.00;;
75785;SDS011;64402;44.708;37.644;2023-03-01T02:52:01;13.13;;;6.35;;
75785;SDS011;64402;44.708;37.644;2023-03-01T02:54:52;12.40;;;6.45;;
75785;SDS011;64402;44.708;37.644;2023-03-01T02:57:30;12.38;;;5.97;;
75785;SDS011;64402;44.708;37.644;2023-03-01T02:59:59;12.70;;;6.10;;
75785;SDS011;64402;44.708;37.644;2023-03-01T03:02:32;13.35;;;6.65;;
75785;SDS011;64402;44.708;37.644;2023-03-01T03:05:10;12.65;;;6.07;;
75785;SDS011;64402;44.708;37.644;2023-03-01T03:07:40;12.57;;;6.15;;
75785;SDS011;64402;44.708;37.644;2023-03-01T03:10:12;13.75;;;6.00;;
75785;SDS011;64402;44.708;37.644;2023-03-01T03:12:40;11.63;;;6.35;;
75785;SDS011;64402;44.708;37.644;2023-03-01T03:15:07;14.05;;;6.32;;
75785;SDS011;64402;44.708;37.644;2023-03-01T03:17:36;15.38;;;6.15;;
75785;SDS011;64402;44.708;37.644;2023-03-01T03:20:03;13.75;;;6.78;;
75785;SDS011;64402;44.708;37.644;2023-03-01T03:22:31;11.60;;;6.38;;
75785;SDS011;64402;44.708;37.644;2023-03-01T03:24:59;12.95;;;6.72;;
75785;SDS011;64402;44.708;37.644;2023-03-01T03:27:25;13.63;;;6.47;;
75785;SDS011;64402;44.708;37.644;2023-03-01T03:29:51;14.13;;;6.30;;
75785;SDS011;64402;44.708;37.644;2023-03-01T03:32:17;12.88;;;6.20;;
75785;SDS011;64402;44.708;37.644;2023-03-01T03:34:43;15.68;;;7.28;;
75785;SDS011;64402;44.708;37.644;2023-03-01T03:37:10;12.45;;;6.28;;
75785;SDS011;64402;44.708;37.644;2023-03-01T03:39:56;12.90;;;6.40;;
75785;SDS011;64402;44.708;37.644;2023-03-01T03:42:22;11.93;;;5.90;;
75785;SDS011;64402;44.708;37.644;2023-03-01T03:44:48;13.60;;;6.05;;
75785;SDS011;64402;44.708;37.644;2023-03-01T03:47:14;10.95;;;5.82;;
75785;SDS011;64402;44.708;37.644;2023-03-01T03:49:40;12.02;;;6.07;;
75785;SDS011;64402;44.708;37.644;2023-03-01T03:52:06;13.60;;;6.50;;
75785;SDS011;64402;44.708;37.644;2023-03-01T03:54:41;13.57;;;6.88;;
75785;SDS011;64402;44.708;37.644;2023-03-01T03:57:07;12.93;;;5.97;;
75785;SDS011;64402;44.708;37.644;2023-03-01T03:59:33;12.88;;;6.38;;
75785;SDS011;64402;44.708;37.644;2023-03-01T04:02:00;12.93;;;6.10;;
75785;SDS011;64402;44.708;37.644;2023-03-01T04:04:26;12.52;;;6.53;;
75785;SDS011;64402;44.708;37.644;2023-03-01T04:06:52;11.23;;;5.82;;
75785;SDS011;64402;44.708;37.644;2023-03-01T04:09:18;13.18;;;5.72;;
75785;SDS011;64402;44.708;37.644;2023-03-01T04:11:44;12.73;;;6.45;;
75785;SDS011;64402;44.708;37.644;2023-03-01T04:14:10;14.43;;;6.20;;
75785;SDS011;64402;44.708;37.644;2023-03-01T04:16:36;11.13;;;5.68;;
75785;SDS011;64402;44.708;37.644;2023-03-01T04:19:02;13.02;;;6.43;;
75785;SDS011;64402;44.708;37.644;2023-03-01T04:21:28;12.80;;;6.28;;
75785;SDS011;64402;44.708;37.644;2023-03-01T04:23:54;12.25;;;6.07;;
75785;SDS011;64402;44.708;37.644;2023-03-01T04:26:21;13.80;;;5.90;;
75785;SDS011;64402;44.708;37.644;2023-03-01T04:28:47;12.45;;;6.35;;
75785;SDS011;64402;44.708;37.644;2023-03-01T04:31:15;14.93;;;7.03;;
75785;SDS011;64402;44.708;37.644;2023-03-01T04:33:50;12.32;;;6.47;;
75785;SDS011;64402;44.708;37.644;2023-03-01T04:38:45;21.23;;;9.02;;
75785;SDS011;64402;44.708;37.644;2023-03-01T04:41:15;18.73;;;7.70;;
75785;SDS011;64402;44.708;37.644;2023-03-01T04:43:43;15.63;;;7.60;;
75785;SDS011;64402;44.708;37.644;2023-03-01T04:46:11;17.77;;;7.72;;
75785;SDS011;64402;44.708;37.644;2023-03-01T04:48:40;21.30;;;10.30;;
75785;SDS011;64402;44.708;37.644;2023-03-01T04:53:34;21.60;;;8.02;;
75785;SDS011;64402;44.708;37.644;2023-03-01T04:56:02;16.58;;;7.07;;
75785;SDS011;64402;44.708;37.644;2023-03-01T04:58:28;18.88;;;7.60;;
75785;SDS011;64402;44.708;37.644;2023-03-01T05:00:55;34.67;;;13.10;;
75785;SDS011;64402;44.708;37.644;2023-03-01T05:03:21;16.42;;;6.65;;
75785;SDS011;64402;44.708;37.644;2023-03-01T05:05:49;14.55;;;6.70;;
75785;SDS011;64402;44.708;37.644;2023-03-01T05:08:16;12.45;;;6.47;;
75785;SDS011;64402;44.708;37.644;2023-03-01T05:10:44;15.88;;;7.40;;
75785;SDS011;64402;44.708;37.644;2023-03-01T05:13:11;18.48;;;6.82;;
75785;SDS011;64402;44.708;37.644;2023-03-01T05:15:56;19.60;;;8.10;;
75785;SDS011;64402;44.708;37.644;2023-03-01T05:18:24;17.23;;;7.93;;
75785;SDS011;64402;44.708;37.644;2023-03-01T05:20:52;15.70;;;7.32;;
75785;SDS011;64402;44.708;37.644;2023-03-01T05:23:22;21.02;;;7.28;;
75785;SDS011;64402;44.708;37.644;2023-03-01T05:25:48;20.45;;;7.65;;
75785;SDS011;64402;44.708;37.644;2023-03-01T05:28:18;15.35;;;7.20;;
75785;SDS011;64402;44.708;37.644;2023-03-01T05:30:45;21.90;;;11.93;;
75785;SDS011;64402;44.708;37.644;2023-03-01T05:33:12;13.98;;;7.20;;
75785;SDS011;64402;44.708;37.644;2023-03-01T05:35:41;12.77;;;6.72;;
75785;SDS011;64402;44.708;37.644;2023-03-01T05:38:09;13.07;;;6.28;;
75785;SDS011;64402;44.708;37.644;2023-03-01T05:40:38;13.75;;;6.30;;
75785;SDS011;64402;44.708;37.644;2023-03-01T05:43:06;22.70;;;10.45;;
75785;SDS011;64402;44.708;37.644;2023-03-01T05:45:32;27.55;;;13.43;;
75785;SDS011;64402;44.708;37.644;2023-03-01T05:48:00;25.85;;;12.95;;
75785;SDS011;64402;44.708;37.644;2023-03-01T05:50:28;15.15;;;7.20;;
75785;SDS011;64402;44.708;37.644;2023-03-01T05:53:01;15.20;;;6.57;;
75785;SDS011;64402;44.708;37.644;2023-03-01T05:55:33;16.05;;;7.40;;
75785;SDS011;64402;44.708;37.644;2023-03-01T05:58:01;15.82;;;6.70;;
75785;SDS011;64402;44.708;37.644;2023-03-01T06:00:29;16.30;;;7.85;;
75785;SDS011;64402;44.708;37.644;2023-03-01T06:02:56;14.90;;;7.55;;
75785;SDS011;64402;44.708;37.644;2023-03-01T06:05:23;15.68;;;7.95;;
75785;SDS011;64402;44.708;37.644;2023-03-01T06:07:50;15.52;;;7.95;;
75785;SDS011;64402;44.708;37.644;2023-03-01T06:10:17;16.30;;;8.70;;
75785;SDS011;64402;44.708;37.644;2023-03-01T06:12:45;16.00;;;7.55;;
75785;SDS011;64402;44.708;37.644;2023-03-01T06:15:12;16.17;;;7.15;;
75785;SDS011;64402;44.708;37.644;2023-03-01T06:17:41;15.88;;;7.88;;
75785;SDS011;64402;44.708;37.644;2023-03-01T06:20:10;22.45;;;10.65;;
75785;SDS011;64402;44.708;37.644;2023-03-01T06:22:44;17.88;;;9.05;;
75785;SDS011;64402;44.708;37.644;2023-03-01T06:25:12;15.73;;;8.20;;
75785;SDS011;64402;44.708;37.644;2023-03-01T06:27:40;14.45;;;7.53;;
75785;SDS011;64402;44.708;37.644;2023-03-01T06:30:08;15.52;;;7.25;;
75785;SDS011;64402;44.708;37.644;2023-03-01T06:32:36;13.05;;;7.30;;
75785;SDS011;64402;44.708;37.644;2023-03-01T06:35:03;13.90;;;6.60;;
75785;SDS011;64402;44.708;37.644;2023-03-01T06:37:30;17.13;;;7.63;;
75785;SDS011;64402;44.708;37.644;2023-03-01T06:39:56;16.40;;;7.28;;
75785;SDS011;64402;44.708;37.644;2023-03-01T06:42:22;15.32;;;7.63;;
75785;SDS011;64402;44.708;37.644;2023-03-01T06:44:48;18.02;;;8.00;;
75785;SDS011;64402;44.708;37.644;2023-03-01T06:47:14;17.08;;;8.70;;
75785;SDS011;64402;44.708;37.644;2023-03-01T06:49:41;13.93;;;6.35;;
75785;SDS011;64402;44.708;37.644;2023-03-01T06:52:07;13.30;;;6.35;;
75785;SDS011;64402;44.708;37.644;2023-03-01T06:54:33;14.52;;;6.28;;
75785;SDS011;64402;44.708;37.644;2023-03-01T06:56:59;16.13;;;6.65;;
75785;SDS011;64402;44.708;37.644;2023-03-01T06:59:25;13.75;;;6.90;;
75785;SDS011;64402;44.708;37.644;2023-03-01T07:01:51;15.88;;;6.93;;
75785;SDS011;64402;44.708;37.644;2023-03-01T07:04:17;14.50;;;6.82;;
75785;SDS011;64402;44.708;37.644;2023-03-01T07:06:43;14.05;;;7.00;;
75785;SDS011;64402;44.708;37.644;2023-03-01T07:09:09;15.38;;;7.90;;
75785;SDS011;64402;44.708;37.644;2023-03-01T07:11:35;14.13;;;7.50;;
75785;SDS011;64402;44.708;37.644;2023-03-01T07:14:01;13.30;;;6.93;;
75785;SDS011;64402;44.708;37.644;2023-03-01T07:16:27;16.63;;;7.63;;
75785;SDS011;64402;44.708;37.644;2023-03-01T07:18:54;15.80;;;6.70;;
75785;SDS011;64402;44.708;37.644;2023-03-01T07:21:20;14.68;;;6.18;;
75785;SDS011;64402;44.708;37.644;2023-03-01T07:23:49;13.95;;;7.40;;
75785;SDS011;64402;44.708;37.644;2023-03-01T07:26:15;14.93;;;7.60;;
75785;SDS011;64402;44.708;37.644;2023-03-01T07:28:41;15.82;;;7.18;;
75785;SDS011;64402;44.708;37.644;2023-03-01T07:31:07;21.00;;;7.22;;
75785;SDS011;64402;44.708;37.644;2023-03-01T07:33:33;12.07;;;6.00;;
75785;SDS011;64402;44.708;37.644;2023-03-01T07:36:00;15.57;;;7.50;;
75785;SDS011;64402;44.708;37.644;2023-03-01T07:38:27;13.20;;;5.65;;
75785;SDS011;64402;44.708;37.644;2023-03-01T07:40:54;12.32;;;5.88;;
75785;SDS011;64402;44.708;37.644;2023-03-01T07:43:24;14.25;;;6.60;;
75785;SDS011;64402;44.708;37.644;2023-03-01T07:45:50;14.98;;;6.95;;
75785;SDS011;64402;44.708;37.644;2023-03-01T07:48:17;13.80;;;6.63;;
75785;SDS011;64402;44.708;37.644;2023-03-01T07:50:43;12.77;;;6.50;;
75785;SDS011;64402;44.708;37.644;2023-03-01T07:53:09;13.43;;;6.75;;
75785;SDS011;64402;44.708;37.644;2023-03-01T07:55:36;13.43;;;6.68;;
75785;SDS011;64402;44.708;37.644;2023-03-01T07:58:02;14.75;;;7.05;;
75785;SDS011;64402;44.708;37.644;2023-03-01T08:00:28;19.13;;;7.22;;
75785;SDS011;64402;44.708;37.644;2023-03-01T08:02:58;12.43;;;6.90;;
75785;SDS011;64402;44.708;37.644;2023-03-01T08:05:24;14.68;;;6.43;;
75785;SDS011;64402;44.708;37.644;2023-03-01T08:07:51;15.13;;;6.30;;
75785;SDS011;64402;44.708;37.644;2023-03-01T08:10:17;11.63;;;5.63;;
75785;SDS011;64402;44.708;37.644;2023-03-01T08:12:46;13.77;;;6.53;;
75785;SDS011;64402;44.708;37.644;2023-03-01T08:15:12;12.80;;;5.90;;
75785;SDS011;64402;44.708;37.644;2023-03-01T08:17:38;12.32;;;5.78;;
75785;SDS011;64402;44.708;37.644;2023-03-01T08:20:04;11.32;;;5.90;;
75785;SDS011;64402;44.708;37.644;2023-03-01T08:22:32;11.32;;;5.10;;
75785;SDS011;64402;44.708;37.644;2023-03-01T08:24:58;11.48;;;5.40;;
75785;SDS011;64402;44.708;37.644;2023-03-01T08:27:24;16.33;;;6.07;;
75785;SDS011;64402;44.708;37.644;2023-03-01T08:29:50;14.05;;;5.13;;
75785;SDS011;64402;44.708;37.644;2023-03-01T08:32:16;10.30;;;5.25;;
75785;SDS011;64402;44.708;37.644;2023-03-01T08:34:45;12.63;;;5.32;;
75785;SDS011;64402;44.708;37.644;2023-03-01T08:37:12;9.55;;;4.53;;
75785;SDS011;64402;44.708;37.644;2023-03-01T08:39:38;12.15;;;5.45;;
75785;SDS011;64402;44.708;37.644;2023-03-01T08:42:04;11.32;;;4.93;;
75785;SDS011;64402;44.708;37.644;2023-03-01T08:44:30;12.02;;;5.30;;
75785;SDS011;64402;44.708;37.644;2023-03-01T08:46:56;12.45;;;5.50;;
75785;SDS011;64402;44.708;37.644;2023-03-01T08:49:23;9.80;;;4.90;;
75785;SDS011;64402;44.708;37.644;2023-03-01T08:51:50;13.07;;;4.93;;
75785;SDS011;64402;44.708;37.644;2023-03-01T08:54:17;14.05;;;5.72;;
75785;SDS011;64402;44.708;37.644;2023-03-01T08:56:45;10.25;;;4.88;;
75785;SDS011;64402;44.708;37.644;2023-03-01T08:59:13;17.00;;;5.07;;
75785;SDS011;64402;44.708;37.644;2023-03-01T09:01:40;13.52;;;5.22;;
75785;SDS011;64402;44.708;37.644;2023-03-01T09:04:08;12.73;;;4.88;;
75785;SDS011;64402;44.708;37.644;2023-03-01T09:06:36;9.55;;;5.00;;
75785;SDS011;64402;44.708;37.644;2023-03-01T09:09:03;11.23;;;4.10;;
75785;SDS011;64402;44.708;37.644;2023-03-01T09:11:30;8.40;;;3.92;;
75785;SDS011;64402;44.708;37.644;2023-03-01T09:13:56;13.65;;;4.40;;
75785;SDS011;64402;44.708;37.644;2023-03-01T09:16:22;12.65;;;3.95;;
75785;SDS011;64402;44.708;37.644;2023-03-01T09:18:52;13.75;;;4.15;;
75785;SDS011;64402;44.708;37.644;2023-03-01T09:21:20;8.35;;;3.50;;
75785;SDS011;64402;44.708;37.644;2023-03-01T09:23:48;10.40;;;3.50;;
75785;SDS011;64402;44.708;37.644;2023-03-01T09:26:18;11.35;;;3.42;;
75785;SDS011;64402;44.708;37.644;2023-03-01T09:28:47;6.70;;;3.10;;
75785;SDS011;64402;44.708;37.644;2023-03-01T09:31:17;10.82;;;2.78;;
75785;SDS011;64402;44.708;37.644;2023-03-01T09:33:47;88.32;;;7.10;;
75785;SDS011;64402;44.708;37.644;2023-03-01T09:36:16;14.00;;;3.38;;
75785;SDS011;64402;44.708;37.644;2023-03-01T09:38:44;10.48;;;3.40;;
75785;SDS011;64402;44.708;37.644;2023-03-01T09:47:04;9.45;;;3.53;;
75785;SDS011;64402;44.708;37.644;2023-03-01T09:49:35;7.00;;;3.38;;
75785;SDS011;64402;44.708;37.644;2023-03-01T09:52:26;9.48;;;3.45;;
75785;SDS011;64402;44.708;37.644;2023-03-01T09:55:13;10.70;;;3.67;;
75785;SDS011;64402;44.708;37.644;2023-03-01T09:58:01;8.55;;;3.90;;
75785;SDS011;64402;44.708;37.644;2023-03-01T10:00:50;8.02;;;3.45;;
75785;SDS011;64402;44.708;37.644;2023-03-01T10:03:34;10.02;;;3.50;;
75785;SDS011;64402;44.708;37.644;2023-03-01T10:06:19;9.73;;;4.80;;
75785;SDS011;64402;44.708;37.644;2023-03-01T10:08:51;12.48;;;6.85;;
75785;SDS011;64402;44.708;37.644;2023-03-01T10:11:22;19.60;;;7.28;;
75785;SDS011;64402;44.708;37.644;2023-03-01T10:14:27;17.98;;;5.43;;
75785;SDS011;64402;44.708;37.644;2023-03-01T10:19:51;12.23;;;5.38;;
75785;SDS011;64402;44.708;37.644;2023-03-01T10:22:21;11.32;;;4.97;;
75785;SDS011;64402;44.708;37.644;2023-03-01T10:24:53;12.68;;;4.47;;
75785;SDS011;64402;44.708;37.644;2023-03-01T10:27:23;13.70;;;4.88;;
75785;SDS011;64402;44.708;37.644;2023-03-01T10:32:27;9.60;;;3.45;;
75785;SDS011;64402;44.708;37.644;2023-03-01T10:34:54;10.55;;;3.80;;
75785;SDS011;64402;44.708;37.644;2023-03-01T10:37:21;8.82;;;3.67;;
75785;SDS011;64402;44.708;37.644;2023-03-01T10:42:32;11.85;;;3.70;;
75785;SDS011;64402;44.708;37.644;2023-03-01T10:45:45;7.65;;;3.45;;
75785;SDS011;64402;44.708;37.644;2023-03-01T10:48:30;14.50;;;4.15;;
75785;SDS011;64402;44.708;37.644;2023-03-01T10:53:29;15.32;;;5.25;;
75785;SDS011;64402;44.708;37.644;2023-03-01T10:58:39;9.88;;;3.28;;
75785;SDS011;64402;44.708;37.644;2023-03-01T11:03:41;16.50;;;3.42;;
75785;SDS011;64402;44.708;37.644;2023-03-01T11:11:18;13.40;;;4.53;;
75785;SDS011;64402;44.708;37.644;2023-03-01T11:13:58;10.60;;;3.25;;
75785;SDS011;64402;44.708;37.644;2023-03-01T11:16:32;6.95;;;2.72;;
75785;SDS011;64402;44.708;37.644;2023-03-01T11:19:00;10.45;;;3.97;;
75785;SDS011;64402;44.708;37.644;2023-03-01T11:24:27;6.40;;;2.33;;
75785;SDS011;64402;44.708;37.644;2023-03-01T11:27:51;7.70;;;2.80;;
75785;SDS011;64402;44.708;37.644;2023-03-01T11:30:02;6.85;;;2.45;;
75785;SDS011;64402;44.708;37.644;2023-03-01T11:35:27;12.30;;;4.22;;
75785;SDS011;64402;44.708;37.644;2023-03-01T11:40:25;11.52;;;4.38;;
75785;SDS011;64402;44.708;37.644;2023-03-01T11:42:56;16.77;;;4.68;;
75785;SDS011;64402;44.708;37.644;2023-03-01T11:45:37;10.75;;;3.53;;
75785;SDS011;64402;44.708;37.644;2023-03-01T11:50:45;8.63;;;3.70;;
75785;SDS011;64402;44.708;37.644;2023-03-01T11:58:53;12.63;;;3.80;;
75785;SDS011;64402;44.708;37.644;2023-03-01T12:01:41;14.13;;;4.45;;
75785;SDS011;64402;44.708;37.644;2023-03-01T12:07:00;8.77;;;3.35;;
75785;SDS011;64402;44.708;37.644;2023-03-01T12:15:29;7.88;;;3.42;;
75785;SDS011;64402;44.708;37.644;2023-03-01T12:24:20;13.60;;;4.22;;
75785;SDS011;64402;44.708;37.644;2023-03-01T12:30:15;14.88;;;5.65;;
75785;SDS011;64402;44.708;37.644;2023-03-01T12:32:22;14.00;;;5.28;;
75785;SDS011;64402;44.708;37.644;2023-03-01T12:37:47;14.15;;;6.32;;
75785;SDS011;64402;44.708;37.644;2023-03-01T12:46:21;16.27;;;6.38;;
75785;SDS011;64402;44.708;37.644;2023-03-01T12:51:49;20.73;;;6.95;;
75785;SDS011;64402;44.708;37.644;2023-03-01T12:54:39;22.35;;;7.13;;
75785;SDS011;64402;44.708;37.644;2023-03-01T13:00:18;14.98;;;6.20;;
75785;SDS011;64402;44.708;37.644;2023-03-01T13:03:00;13.90;;;4.93;;
75785;SDS011;64402;44.708;37.644;2023-03-01T13:08:35;15.00;;;5.65;;
75785;SDS011;64402;44.708;37.644;2023-03-01T13:11:15;15.27;;;5.20;;
75785;SDS011;64402;44.708;37.644;2023-03-01T13:13:44;11.38;;;4.63;;
75785;SDS011;64402;44.708;37.644;2023-03-01T13:16:45;10.55;;;4.40;;
75785;SDS011;64402;44.708;37.644;2023-03-01T13:19:06;9.68;;;4.28;;
75785;SDS011;64402;44.708;37.644;2023-03-01T13:21:41;9.95;;;4.10;;
75785;SDS011;64402;44.708;37.644;2023-03-01T13:37:44;12.57;;;4.53;;
75785;SDS011;64402;44.708;37.644;2023-03-01T13:42:51;19.35;;;6.40;;
75785;SDS011;64402;44.708;37.644;2023-03-01T13:48:25;11.15;;;3.17;;
75785;SDS011;64402;44.708;37.644;2023-03-01T13:50:57;9.43;;;3.22;;
75785;SDS011;64402;44.708;37.644;2023-03-01T13:53:26;9.10;;;3.22;;
75785;SDS011;64402;44.708;37.644;2023-03-01T13:56:00;12.10;;;3.42;;
75785;SDS011;64402;44.708;37.644;2023-03-01T13:58:33;14.48;;;3.95;;
75785;SDS011;64402;44.708;37.644;2023-03-01T14:01:25;10.68;;;3.95;;
75785;SDS011;64402;44.708;37.644;2023-03-01T14:03:53;13.63;;;5.25;;
75785;SDS011;64402;44.708;37.644;2023-03-01T14:06:22;21.60;;;4.70;;
75785;SDS011;64402;44.708;37.644;2023-03-01T14:08:52;15.00;;;4.20;;
75785;SDS011;64402;44.708;37.644;2023-03-01T14:20:14;13.75;;;3.70;;
75785;SDS011;64402;44.708;37.644;2023-03-01T14:22:50;13.68;;;3.22;;
75785;SDS011;64402;44.708;37.644;2023-03-01T14:25:27;10.77;;;3.35;;
75785;SDS011;64402;44.708;37.644;2023-03-01T14:28:03;14.85;;;3.00;;
75785;SDS011;64402;44.708;37.644;2023-03-01T14:30:48;11.45;;;2.70;;
75785;SDS011;64402;44.708;37.644;2023-03-01T14:33:26;10.88;;;2.75;;
75785;SDS011;64402;44.708;37.644;2023-03-01T14:38:40;23.50;;;4.03;;
75785;SDS011;64402;44.708;37.644;2023-03-01T14:41:11;10.25;;;2.20;;
75785;SDS011;64402;44.708;37.644;2023-03-01T14:43:45;7.38;;;2.00;;
75785;SDS011;64402;44.708;37.644;2023-03-01T14:46:19;11.95;;;2.38;;
75785;SDS011;64402;44.708;37.644;2023-03-01T14:48:49;9.60;;;2.13;;
75785;SDS011;64402;44.708;37.644;2023-03-01T14:51:20;23.98;;;2.90;;
75785;SDS011;64402;44.708;37.644;2023-03-01T14:53:46;11.95;;;2.53;;
75785;SDS011;64402;44.708;37.644;2023-03-01T14:56:14;12.40;;;2.60;;
75785;SDS011;64402;44.708;37.644;2023-03-01T14:58:43;6.75;;;2.17;;
75785;SDS011;64402;44.708;37.644;2023-03-01T15:01:10;13.98;;;3.35;;
75785;SDS011;64402;44.708;37.644;2023-03-01T15:03:42;26.85;;;4.32;;
75785;SDS011;64402;44.708;37.644;2023-03-01T15:06:11;13.15;;;3.70;;
75785;SDS011;64402;44.708;37.644;2023-03-01T15:08:42;16.73;;;5.10;;
75785;SDS011;64402;44.708;37.644;2023-03-01T15:11:20;13.15;;;5.07;;
75785;SDS011;64402;44.708;37.644;2023-03-01T15:13:48;15.65;;;3.95;;
75785;SDS011;64402;44.708;37.644;2023-03-01T15:16:16;10.48;;;4.05;;
75785;SDS011;64402;44.708;37.644;2023-03-01T15:18:50;14.15;;;4.47;;
75785;SDS011;64402;44.708;37.644;2023-03-01T15:21:23;22.42;;;4.82;;
75785;SDS011;64402;44.708;37.644;2023-03-01T15:23:57;16.13;;;5.90;;
75785;SDS011;64402;44.708;37.644;2023-03-01T15:26:55;19.85;;;6.10;;
75785;SDS011;64402;44.708;37.644;2023-03-01T15:29:27;17.92;;;5.22;;
75785;SDS011;64402;44.708;37.644;2023-03-01T15:32:03;12.38;;;5.05;;
75785;SDS011;64402;44.708;37.644;2023-03-01T15:34:36;15.35;;;4.43;;
75785;SDS011;64402;44.708;37.644;2023-03-01T15:37:04;14.82;;;4.72;;
75785;SDS011;64402;44.708;37.644;2023-03-01T15:39:35;12.50;;;4.20;;
75785;SDS011;64402;44.708;37.644;2023-03-01T15:42:05;8.77;;;3.83;;
75785;SDS011;64402;44.708;37.644;2023-03-01T15:44:38;9.38;;;3.50;;
75785;SDS011;64402;44.708;37.644;2023-03-01T15:47:22;11.73;;;4.20;;
75785;SDS011;64402;44.708;37.644;2023-03-01T15:49:52;10.10;;;3.88;;
75785;SDS011;64402;44.708;37.644;2023-03-01T15:52:24;12.73;;;4.43;;
75785;SDS011;64402;44.708;37.644;2023-03-01T15:54:58;14.00;;;4.10;;
75785;SDS011;64402;44.708;37.644;2023-03-01T15:57:26;15.25;;;5.20;;
75785;SDS011;64402;44.708;37.644;2023-03-01T15:59:52;24.45;;;9.27;;
75785;SDS011;64402;44.708;37.644;2023-03-01T16:02:19;15.90;;;5.97;;
75785;SDS011;64402;44.708;37.644;2023-03-01T16:04:47;16.75;;;5.18;;
75785;SDS011;64402;44.708;37.644;2023-03-01T16:07:16;9.70;;;4.65;;
75785;SDS011;64402;44.708;37.644;2023-03-01T16:09:43;8.90;;;4.32;;
75785;SDS011;64402;44.708;37.644;2023-03-01T16:12:15;11.02;;;4.30;;
75785;SDS011;64402;44.708;37.644;2023-03-01T16:14:45;13.95;;;4.28;;
75785;SDS011;64402;44.708;37.644;2023-03-01T16:17:13;10.00;;;4.50;;
75785;SDS011;64402;44.708;37.644;2023-03-01T16:19:40;14.95;;;4.88;;
75785;SDS011;64402;44.708;37.644;2023-03-01T16:22:08;19.73;;;5.80;;
75785;SDS011;64402;44.708;37.644;2023-03-01T16:24:36;18.60;;;7.90;;
75785;SDS011;64402;44.708;37.644;2023-03-01T16:27:02;13.73;;;5.45;;
75785;SDS011;64402;44.708;37.644;2023-03-01T16:29:29;14.30;;;4.45;;
75785;SDS011;64402;44.708;37.644;2023-03-01T16:31:55;15.45;;;4.90;;
75785;SDS011;64402;44.708;37.644;2023-03-01T16:34:21;45.22;;;20.00;;
75785;SDS011;64402;44.708;37.644;2023-03-01T16:36:48;31.13;;;12.25;;
75785;SDS011;64402;44.708;37.644;2023-03-01T16:39:15;26.25;;;12.38;;
75785;SDS011;64402;44.708;37.644;2023-03-01T16:41:41;24.65;;;10.23;;
75785;SDS011;64402;44.708;37.644;2023-03-01T16:44:08;23.63;;;14.77;;
75785;SDS011;64402;44.708;37.644;2023-03-01T16:46:34;18.02;;;9.85;;
75785;SDS011;64402;44.708;37.644;2023-03-01T16:49:00;15.73;;;6.03;;